sensor_id;sensor_type;location;lat;lon;timestamp;pressure;altitude;pressure_sealevel;temperature;humidity
18275;BME280;19470;49.322;7.218;2023-05-25T00:01:24;99211.88;;;14.78;78.65
18275;BME280;19470;49.322;7.218;2023-05-25T00:03:51;99215.91;;;14.86;78.30
18275;BME280;19470;49.322;7.218;2023-05-25T00:06:20;99217.38;;;14.67;79.68
18275;BME280;19470;49.322;7.218;2023-05-25T00:08:47;99212.38;;;14.75;79.41
18275;BME280;19470;49.322;7.218;2023-05-25T00:11:15;99212.66;;;14.79;79.90
18275;BME280;19470;49.322;7.218;2023-05-25T00:13:43;99208.44;;;14.51;80.55
18275;BME280;19470;49.322;7.218;2023-05-25T00:16:10;99206.78;;;14.45;80.16
18275;BME280;19470;49.322;7.218;2023-05-25T00:18:36;99208.75;;;14.27;81.69
18275;BME280;19470;49.322;7.218;2023-05-25T00:21:05;99209.13;;;14.68;80.45
18275;BME280;19470;49.322;7.218;2023-05-25T00:23:33;99206.53;;;14.19;83.97
18275;BME280;19470;49.322;7.218;2023-05-25T00:26:02;99198.19;;;13.84;83.82
18275;BME280;19470;49.322;7.218;2023-05-25T00:28:29;99198.94;;;14.06;85.42
18275;BME280;19470;49.322;7.218;2023-05-25T00:30:55;99202.72;;;14.10;84.69
18275;BME280;19470;49.322;7.218;2023-05-25T00:33:22;99201.22;;;14.19;82.11
18275;BME280;19470;49.322;7.218;2023-05-25T00:35:48;99204.75;;;13.76;85.98
18275;BME280;19470;49.322;7.218;2023-05-25T00:38:17;99208.38;;;14.46;81.44
18275;BME280;19470;49.322;7.218;2023-05-25T00:40:45;99208.88;;;14.43;82.52
18275;BME280;19470;49.322;7.218;2023-05-25T00:43:12;99211.19;;;14.61;81.52
18275;BME280;19470;49.322;7.218;2023-05-25T00:45:38;99207.81;;;14.12;83.44
18275;BME280;19470;49.322;7.218;2023-05-25T00:48:05;99211.66;;;13.99;84.29
18275;BME280;19470;49.322;7.218;2023-05-25T00:50:36;99203.72;;;14.04;84.73
18275;BME280;19470;49.322;7.218;2023-05-25T00:53:03;99209.00;;;14.26;83.14
18275;BME280;19470;49.322;7.218;2023-05-25T00:55:32;99208.31;;;14.09;84.42
18275;BME280;19470;49.322;7.218;2023-05-25T00:58:03;99210.22;;;14.13;84.64
18275;BME280;19470;49.322;7.218;2023-05-25T01:00:32;99208.88;;;14.16;84.35
18275;BME280;19470;49.322;7.218;2023-05-25T01:03:03;99211.41;;;14.27;84.37
18275;BME280;19470;49.322;7.218;2023-05-25T01:05:36;99200.22;;;13.98;85.32
18275;BME280;19470;49.322;7.218;2023-05-25T01:08:04;99202.25;;;13.91;85.33
18275;BME280;19470;49.322;7.218;2023-05-25T01:10:32;99200.63;;;14.12;84.16
18275;BME280;19470;49.322;7.218;2023-05-25T01:13:03;99209.72;;;14.16;84.16
18275;BME280;19470;49.322;7.218;2023-05-25T01:15:32;99205.38;;;14.10;84.61
18275;BME280;19470;49.322;7.218;2023-05-25T01:17:59;99204.88;;;13.86;87.34
18275;BME280;19470;49.322;7.218;2023-05-25T01:20:26;99200.72;;;13.73;87.23
18275;BME280;19470;49.322;7.218;2023-05-25T01:22:58;99198.44;;;14.09;87.07
18275;BME280;19470;49.322;7.218;2023-05-25T01:25:33;99200.81;;;14.05;87.16
18275;BME280;19470;49.322;7.218;2023-05-25T01:28:05;99207.72;;;14.06;86.40
18275;BME280;19470;49.322;7.218;2023-05-25T01:30:33;99201.94;;;13.88;87.38
18275;BME280;19470;49.322;7.218;2023-05-25T01:33:00;99211.25;;;13.63;88.64
18275;BME280;19470;49.322;7.218;2023-05-25T01:35:28;99206.09;;;14.00;86.47
18275;BME280;19470;49.322;7.218;2023-05-25T01:37:57;99207.84;;;13.90;87.22
18275;BME280;19470;49.322;7.218;2023-05-25T01:40:24;99206.66;;;13.80;87.21
18275;BME280;19470;49.322;7.218;2023-05-25T01:42:50;99207.78;;;13.85;87.93
18275;BME280;19470;49.322;7.218;2023-05-25T01:45:17;99210.75;;;14.15;85.98
18275;BME280;19470;49.322;7.218;2023-05-25T01:47:47;99217.44;;;13.91;87.26
18275;BME280;19470;49.322;7.218;2023-05-25T01:50:22;99213.34;;;13.83;88.68
18275;BME280;19470;49.322;7.218;2023-05-25T01:52:58;99216.22;;;13.76;87.59
18275;BME280;19470;49.322;7.218;2023-05-25T01:55:27;99214.91;;;14.06;87.04
18275;BME280;19470;49.322;7.218;2023-05-25T01:57:57;99218.75;;;13.88;87.51
18275;BME280;19470;49.322;7.218;2023-05-25T02:00:25;99224.47;;;14.02;87.29
18275;BME280;19470;49.322;7.218;2023-05-25T02:02:56;99226.00;;;13.93;88.23
18275;BME280;19470;49.322;7.218;2023-05-25T02:05:23;99220.91;;;13.91;89.19
18275;BME280;19470;49.322;7.218;2023-05-25T02:07:49;99224.81;;;13.62;89.85
18275;BME280;19470;49.322;7.218;2023-05-25T02:10:17;99226.25;;;13.69;90.80
18275;BME280;19470;49.322;7.218;2023-05-25T02:12:44;99229.06;;;13.41;90.99
18275;BME280;19470;49.322;7.218;2023-05-25T02:15:11;99230.81;;;13.52;92.80
18275;BME280;19470;49.322;7.218;2023-05-25T02:17:37;99229.03;;;13.58;90.87
18275;BME280;19470;49.322;7.218;2023-05-25T02:20:05;99220.66;;;13.93;90.71
18275;BME280;19470;49.322;7.218;2023-05-25T02:22:32;99221.97;;;13.46;91.75
18275;BME280;19470;49.322;7.218;2023-05-25T02:24:59;99214.38;;;13.55;92.40
18275;BME280;19470;49.322;7.218;2023-05-25T02:27:27;99213.09;;;13.41;92.13
18275;BME280;19470;49.322;7.218;2023-05-25T02:29:53;99211.72;;;14.04;89.26
18275;BME280;19470;49.322;7.218;2023-05-25T02:32:20;99209.66;;;13.62;91.13
18275;BME280;19470;49.322;7.218;2023-05-25T02:34:46;99215.03;;;13.67;92.27
18275;BME280;19470;49.322;7.218;2023-05-25T02:37:13;99212.94;;;13.47;91.76
18275;BME280;19470;49.322;7.218;2023-05-25T02:39:39;99213.88;;;13.36;93.35
18275;BME280;19470;49.322;7.218;2023-05-25T02:42:06;99210.34;;;13.52;92.18
18275;BME280;19470;49.322;7.218;2023-05-25T02:44:34;99208.75;;;13.51;94.42
18275;BME280;19470;49.322;7.218;2023-05-25T02:47:00;99221.34;;;13.39;94.38
18275;BME280;19470;49.322;7.218;2023-05-25T02:49:27;99205.88;;;13.58;93.38
18275;BME280;19470;49.322;7.218;2023-05-25T02:51:54;99209.72;;;13.45;94.28
18275;BME280;19470;49.322;7.218;2023-05-25T02:54:20;99214.66;;;13.37;94.16
18275;BME280;19470;49.322;7.218;2023-05-25T02:56:47;99209.34;;;13.20;94.55
18275;BME280;19470;49.322;7.218;2023-05-25T02:59:13;99207.25;;;13.61;93.80
18275;BME280;19470;49.322;7.218;2023-05-25T03:01:41;99209.59;;;13.57;92.46
18275;BME280;19470;49.322;7.218;2023-05-25T03:14:12;99230.56;;;13.32;97.47
18275;BME280;19470;49.322;7.218;2023-05-25T03:16:40;99224.81;;;13.40;96.01
18275;BME280;19470;49.322;7.218;2023-05-25T03:19:07;99222.81;;;13.30;96.43
18275;BME280;19470;49.322;7.218;2023-05-25T03:21:34;99219.41;;;13.35;96.50
18275;BME280;19470;49.322;7.218;2023-05-25T03:24:01;99229.31;;;13.39;95.61
18275;BME280;19470;49.322;7.218;2023-05-25T03:26:27;99236.69;;;13.15;97.67
18275;BME280;19470;49.322;7.218;2023-05-25T03:28:54;99228.69;;;13.15;96.27
18275;BME280;19470;49.322;7.218;2023-05-25T03:31:22;99230.31;;;13.33;96.19
18275;BME280;19470;49.322;7.218;2023-05-25T03:33:50;99240.09;;;13.27;96.41
18275;BME280;19470;49.322;7.218;2023-05-25T03:36:16;99239.56;;;13.30;96.63
18275;BME280;19470;49.322;7.218;2023-05-25T03:38:43;99239.41;;;13.20;96.39
18275;BME280;19470;49.322;7.218;2023-05-25T03:41:10;99236.44;;;13.17;97.96
18275;BME280;19470;49.322;7.218;2023-05-25T03:43:36;99237.19;;;13.51;95.53
18275;BME280;19470;49.322;7.218;2023-05-25T03:49:25;99241.94;;;13.49;96.14
18275;BME280;19470;49.322;7.218;2023-05-25T03:51:52;99238.34;;;13.21;98.21
18275;BME280;19470;49.322;7.218;2023-05-25T03:54:18;99238.81;;;13.74;93.09
18275;BME280;19470;49.322;7.218;2023-05-25T03:56:45;99250.00;;;13.54;95.09
18275;BME280;19470;49.322;7.218;2023-05-25T03:59:11;99245.72;;;13.97;93.24
18275;BME280;19470;49.322;7.218;2023-05-25T04:01:38;99248.72;;;13.57;94.72
18275;BME280;19470;49.322;7.218;2023-05-25T04:04:04;99247.78;;;13.90;94.35
18275;BME280;19470;49.322;7.218;2023-05-25T04:06:32;99254.25;;;13.33;97.43
18275;BME280;19470;49.322;7.218;2023-05-25T04:09:01;99250.44;;;13.90;93.90
18275;BME280;19470;49.322;7.218;2023-05-25T04:11:28;99257.31;;;13.42;96.02
18275;BME280;19470;49.322;7.218;2023-05-25T04:13:55;99261.75;;;13.58;95.84
18275;BME280;19470;49.322;7.218;2023-05-25T04:16:22;99261.63;;;13.48;94.95
18275;BME280;19470;49.322;7.218;2023-05-25T04:18:50;99265.81;;;13.61;96.72
18275;BME280;19470;49.322;7.218;2023-05-25T04:21:16;99271.72;;;13.46;95.31
18275;BME280;19470;49.322;7.218;2023-05-25T04:23:44;99264.63;;;13.51;97.03
18275;BME280;19470;49.322;7.218;2023-05-25T04:26:10;99268.25;;;13.45;97.62
18275;BME280;19470;49.322;7.218;2023-05-25T04:28:37;99270.88;;;13.23;97.97
18275;BME280;19470;49.322;7.218;2023-05-25T04:31:05;99277.47;;;13.60;95.18
18275;BME280;19470;49.322;7.218;2023-05-25T04:33:31;99270.66;;;13.47;94.73
18275;BME280;19470;49.322;7.218;2023-05-25T04:35:58;99274.81;;;13.81;95.34
18275;BME280;19470;49.322;7.218;2023-05-25T04:38:25;99268.06;;;13.52;95.97
18275;BME280;19470;49.322;7.218;2023-05-25T04:40:53;99277.50;;;13.81;93.85
18275;BME280;19470;49.322;7.218;2023-05-25T04:43:21;99274.34;;;13.85;93.33
18275;BME280;19470;49.322;7.218;2023-05-25T04:45:50;99279.91;;;14.05;93.50
18275;BME280;19470;49.322;7.218;2023-05-25T04:48:16;99282.44;;;13.95;94.77
18275;BME280;19470;49.322;7.218;2023-05-25T04:50:43;99296.56;;;13.73;94.30
18275;BME280;19470;49.322;7.218;2023-05-25T04:53:10;99288.19;;;14.30;90.96
18275;BME280;19470;49.322;7.218;2023-05-25T04:55:36;99293.47;;;14.52;90.37
18275;BME280;19470;49.322;7.218;2023-05-25T04:58:05;99292.09;;;14.01;94.24
18275;BME280;19470;49.322;7.218;2023-05-25T05:00:32;99297.25;;;13.86;93.82
18275;BME280;19470;49.322;7.218;2023-05-25T05:02:59;99296.53;;;14.66;89.70
18275;BME280;19470;49.322;7.218;2023-05-25T05:05:25;99297.56;;;14.60;91.57
18275;BME280;19470;49.322;7.218;2023-05-25T05:07:52;99294.84;;;14.33;92.38
18275;BME280;19470;49.322;7.218;2023-05-25T05:10:19;99301.88;;;14.17;91.82
18275;BME280;19470;49.322;7.218;2023-05-25T05:12:45;99316.22;;;14.60;91.72
18275;BME280;19470;49.322;7.218;2023-05-25T05:18:35;99316.84;;;14.45;90.81
18275;BME280;19470;49.322;7.218;2023-05-25T05:21:01;99322.75;;;14.74;89.68
18275;BME280;19470;49.322;7.218;2023-05-25T05:23:28;99322.41;;;14.66;89.49
18275;BME280;19470;49.322;7.218;2023-05-25T05:25:54;99320.66;;;15.14;87.46
18275;BME280;19470;49.322;7.218;2023-05-25T05:28:20;99312.41;;;15.15;87.30
18275;BME280;19470;49.322;7.218;2023-05-25T05:30:51;99322.81;;;15.17;87.73
18275;BME280;19470;49.322;7.218;2023-05-25T05:33:18;99321.91;;;15.01;87.26
18275;BME280;19470;49.322;7.218;2023-05-25T05:35:46;99325.31;;;15.28;86.70
18275;BME280;19470;49.322;7.218;2023-05-25T05:38:12;99333.97;;;15.46;86.04
18275;BME280;19470;49.322;7.218;2023-05-25T05:40:39;99329.03;;;15.27;85.12
18275;BME280;19470;49.322;7.218;2023-05-25T05:43:05;99333.19;;;15.50;81.96
18275;BME280;19470;49.322;7.218;2023-05-25T05:45:32;99337.16;;;15.48;81.88
18275;BME280;19470;49.322;7.218;2023-05-25T05:47:58;99338.16;;;15.69;81.96
18275;BME280;19470;49.322;7.218;2023-05-25T05:50:25;99338.84;;;16.01;81.35
18275;BME280;19470;49.322;7.218;2023-05-25T05:52:53;99335.53;;;15.79;81.04
18275;BME280;19470;49.322;7.218;2023-05-25T05:55:19;99335.22;;;15.70;81.41
18275;BME280;19470;49.322;7.218;2023-05-25T05:57:46;99336.53;;;16.25;80.08
18275;BME280;19470;49.322;7.218;2023-05-25T06:00:13;99333.47;;;15.91;79.77
18275;BME280;19470;49.322;7.218;2023-05-25T06:02:41;99334.81;;;16.04;78.59
18275;BME280;19470;49.322;7.218;2023-05-25T06:05:08;99334.63;;;16.21;76.78
18275;BME280;19470;49.322;7.218;2023-05-25T06:07:34;99337.09;;;16.38;77.00
18275;BME280;19470;49.322;7.218;2023-05-25T06:10:04;99336.06;;;16.49;74.56
18275;BME280;19470;49.322;7.218;2023-05-25T06:12:30;99345.50;;;16.82;75.09
18275;BME280;19470;49.322;7.218;2023-05-25T06:14:57;99338.28;;;17.18;72.82
18275;BME280;19470;49.322;7.218;2023-05-25T06:17:23;99341.22;;;17.42;72.18
18275;BME280;19470;49.322;7.218;2023-05-25T06:19:50;99335.88;;;17.06;73.18
18275;BME280;19470;49.322;7.218;2023-05-25T06:22:16;99342.56;;;17.14;71.85
18275;BME280;19470;49.322;7.218;2023-05-25T06:24:43;99343.91;;;17.32;70.48
18275;BME280;19470;49.322;7.218;2023-05-25T06:27:11;99336.41;;;17.24;70.64
18275;BME280;19470;49.322;7.218;2023-05-25T06:29:37;99340.94;;;17.44;69.34
18275;BME280;19470;49.322;7.218;2023-05-25T06:32:04;99340.88;;;17.64;69.71
18275;BME280;19470;49.322;7.218;2023-05-25T06:34:31;99347.88;;;17.75;70.63
18275;BME280;19470;49.322;7.218;2023-05-25T06:36:57;99345.47;;;17.79;69.70
18275;BME280;19470;49.322;7.218;2023-05-25T06:39:24;99346.75;;;18.51;67.10
18275;BME280;19470;49.322;7.218;2023-05-25T06:41:50;99340.41;;;17.42;71.30
18275;BME280;19470;49.322;7.218;2023-05-25T06:44:18;99341.97;;;17.73;69.07
18275;BME280;19470;49.322;7.218;2023-05-25T06:46:45;99343.34;;;17.35;69.56
18275;BME280;19470;49.322;7.218;2023-05-25T06:49:12;99340.31;;;17.87;68.68
18275;BME280;19470;49.322;7.218;2023-05-25T06:51:38;99339.88;;;18.35;69.16
18275;BME280;19470;49.322;7.218;2023-05-25T06:54:05;99339.19;;;18.58;65.85
18275;BME280;19470;49.322;7.218;2023-05-25T06:56:32;99336.44;;;18.19;66.29
18275;BME280;19470;49.322;7.218;2023-05-25T06:58:59;99334.22;;;18.81;65.78
18275;BME280;19470;49.322;7.218;2023-05-25T07:01:27;99347.03;;;18.50;64.12
18275;BME280;19470;49.322;7.218;2023-05-25T07:03:53;99340.34;;;18.92;64.84
18275;BME280;19470;49.322;7.218;2023-05-25T07:06:20;99340.78;;;19.04;63.01
18275;BME280;19470;49.322;7.218;2023-05-25T07:08:46;99336.44;;;19.08;62.73
18275;BME280;19470;49.322;7.218;2023-05-25T07:11:13;99341.72;;;19.18;62.99
18275;BME280;19470;49.322;7.218;2023-05-25T07:13:39;99337.50;;;19.12;61.52
18275;BME280;19470;49.322;7.218;2023-05-25T07:16:06;99331.53;;;19.20;61.46
18275;BME280;19470;49.322;7.218;2023-05-25T07:18:37;99336.53;;;18.98;61.65
18275;BME280;19470;49.322;7.218;2023-05-25T07:21:04;99325.44;;;19.38;61.09
18275;BME280;19470;49.322;7.218;2023-05-25T07:23:31;99327.94;;;19.30;61.95
18275;BME280;19470;49.322;7.218;2023-05-25T07:25:58;99326.75;;;19.70;60.30
18275;BME280;19470;49.322;7.218;2023-05-25T07:28:25;99320.94;;;19.63;59.71
18275;BME280;19470;49.322;7.218;2023-05-25T07:30:51;99322.44;;;19.93;59.21
18275;BME280;19470;49.322;7.218;2023-05-25T07:33:18;99329.53;;;20.51;59.22
18275;BME280;19470;49.322;7.218;2023-05-25T07:35:46;99327.56;;;20.13;59.45
18275;BME280;19470;49.322;7.218;2023-05-25T07:38:12;99331.16;;;20.52;60.45
18275;BME280;19470;49.322;7.218;2023-05-25T07:40:39;99330.91;;;21.18;56.56
18275;BME280;19470;49.322;7.218;2023-05-25T07:43:07;99327.34;;;20.72;56.50
18275;BME280;19470;49.322;7.218;2023-05-25T07:45:33;99332.56;;;20.82;55.57
18275;BME280;19470;49.322;7.218;2023-05-25T07:48:00;99326.03;;;20.07;56.07
18275;BME280;19470;49.322;7.218;2023-05-25T07:50:27;99329.81;;;20.87;54.76
18275;BME280;19470;49.322;7.218;2023-05-25T07:52:55;99327.91;;;20.87;53.44
18275;BME280;19470;49.322;7.218;2023-05-25T07:55:24;99347.66;;;21.48;53.46
18275;BME280;19470;49.322;7.218;2023-05-25T07:57:52;99334.78;;;20.61;54.81
18275;BME280;19470;49.322;7.218;2023-05-25T08:00:19;99328.91;;;20.91;53.09
18275;BME280;19470;49.322;7.218;2023-05-25T08:02:46;99332.63;;;21.28;53.50
18275;BME280;19470;49.322;7.218;2023-05-25T08:05:12;99333.78;;;21.82;52.24
18275;BME280;19470;49.322;7.218;2023-05-25T08:07:39;99331.50;;;21.62;52.48
18275;BME280;19470;49.322;7.218;2023-05-25T08:10:08;99332.50;;;22.07;51.35
18275;BME280;19470;49.322;7.218;2023-05-25T08:12:34;99338.69;;;22.08;50.92
18275;BME280;19470;49.322;7.218;2023-05-25T08:15:01;99350.31;;;22.22;48.32
18275;BME280;19470;49.322;7.218;2023-05-25T08:17:28;99345.06;;;21.57;52.34
18275;BME280;19470;49.322;7.218;2023-05-25T08:19:55;99344.19;;;21.89;51.94
18275;BME280;19470;49.322;7.218;2023-05-25T08:22:22;99349.50;;;21.80;51.53
18275;BME280;19470;49.322;7.218;2023-05-25T08:24:48;99352.09;;;22.63;50.32
18275;BME280;19470;49.322;7.218;2023-05-25T08:27:17;99357.78;;;22.25;49.46
18275;BME280;19470;49.322;7.218;2023-05-25T08:29:43;99351.56;;;21.56;50.32
18275;BME280;19470;49.322;7.218;2023-05-25T08:32:10;99362.16;;;21.66;49.66
18275;BME280;19470;49.322;7.218;2023-05-25T08:34:36;99346.47;;;21.68;49.81
18275;BME280;19470;49.322;7.218;2023-05-25T08:37:03;99355.69;;;22.08;48.84
18275;BME280;19470;49.322;7.218;2023-05-25T08:39:30;99355.19;;;22.70;48.98
18275;BME280;19470;49.322;7.218;2023-05-25T08:41:56;99343.31;;;22.93;49.56
18275;BME280;19470;49.322;7.218;2023-05-25T08:44:25;99347.22;;;22.87;49.65
18275;BME280;19470;49.322;7.218;2023-05-25T08:46:55;99359.59;;;23.02;49.53
18275;BME280;19470;49.322;7.218;2023-05-25T08:49:22;99351.91;;;22.95;47.88
18275;BME280;19470;49.322;7.218;2023-05-25T08:51:49;99351.06;;;23.62;42.28
18275;BME280;19470;49.322;7.218;2023-05-25T08:54:17;99349.44;;;23.30;42.27
18275;BME280;19470;49.322;7.218;2023-05-25T08:56:48;99352.97;;;22.72;44.40
18275;BME280;19470;49.322;7.218;2023-05-25T08:59:28;99345.56;;;23.23;45.27
18275;BME280;19470;49.322;7.218;2023-05-25T09:02:04;99342.31;;;24.05;42.78
18275;BME280;19470;49.322;7.218;2023-05-25T09:04:33;99344.03;;;23.92;42.93
18275;BME280;19470;49.322;7.218;2023-05-25T09:07:00;99343.03;;;24.45;42.34
18275;BME280;19470;49.322;7.218;2023-05-25T09:09:27;99342.91;;;23.93;40.67
18275;BME280;19470;49.322;7.218;2023-05-25T09:11:54;99340.91;;;23.14;41.77
18275;BME280;19470;49.322;7.218;2023-05-25T09:14:22;99341.66;;;24.00;40.95
18275;BME280;19470;49.322;7.218;2023-05-25T09:16:50;99349.69;;;23.74;41.37
18275;BME280;19470;49.322;7.218;2023-05-25T09:19:17;99347.81;;;23.83;41.16
18275;BME280;19470;49.322;7.218;2023-05-25T09:21:43;99347.81;;;23.83;41.77
18275;BME280;19470;49.322;7.218;2023-05-25T09:24:10;99351.09;;;23.71;42.64
18275;BME280;19470;49.322;7.218;2023-05-25T09:26:37;99342.50;;;24.26;42.17
18275;BME280;19470;49.322;7.218;2023-05-25T09:29:04;99344.25;;;24.22;40.94
18275;BME280;19470;49.322;7.218;2023-05-25T09:31:30;99341.47;;;25.61;38.92
18275;BME280;19470;49.322;7.218;2023-05-25T09:33:58;99355.28;;;25.85;40.22
18275;BME280;19470;49.322;7.218;2023-05-25T09:36:25;99347.75;;;25.91;42.42
18275;BME280;19470;49.322;7.218;2023-05-25T09:38:52;99351.25;;;25.44;40.44
18275;BME280;19470;49.322;7.218;2023-05-25T09:41:19;99345.16;;;25.65;39.83
18275;BME280;19470;49.322;7.218;2023-05-25T09:43:46;99347.53;;;24.76;39.06
18275;BME280;19470;49.322;7.218;2023-05-25T09:46:12;99357.00;;;25.98;38.59
18275;BME280;19470;49.322;7.218;2023-05-25T09:48:39;99352.22;;;25.40;39.47
18275;BME280;19470;49.322;7.218;2023-05-25T09:51:10;99346.38;;;26.98;38.57
18275;BME280;19470;49.322;7.218;2023-05-25T09:53:36;99357.34;;;27.10;39.28
18275;BME280;19470;49.322;7.218;2023-05-25T09:58:52;99346.22;;;27.48;37.61
18275;BME280;19470;49.322;7.218;2023-05-25T10:01:19;99348.94;;;26.82;39.37
18275;BME280;19470;49.322;7.218;2023-05-25T10:03:45;99342.94;;;27.55;35.64
18275;BME280;19470;49.322;7.218;2023-05-25T10:06:13;99348.44;;;27.92;35.27
18275;BME280;19470;49.322;7.218;2023-05-25T10:08:42;99345.13;;;27.86;38.15
18275;BME280;19470;49.322;7.218;2023-05-25T10:11:09;99348.63;;;28.36;35.36
18275;BME280;19470;49.322;7.218;2023-05-25T10:13:36;99344.47;;;27.77;34.39
18275;BME280;19470;49.322;7.218;2023-05-25T10:16:04;99340.19;;;27.55;34.72
18275;BME280;19470;49.322;7.218;2023-05-25T10:18:31;99342.41;;;27.86;37.68
18275;BME280;19470;49.322;7.218;2023-05-25T10:21:02;99339.22;;;27.84;34.61
18275;BME280;19470;49.322;7.218;2023-05-25T10:23:34;99346.47;;;28.17;34.53
18275;BME280;19470;49.322;7.218;2023-05-25T10:26:04;99349.00;;;26.23;38.19
18275;BME280;19470;49.322;7.218;2023-05-25T10:28:35;99349.03;;;27.52;34.39
18275;BME280;19470;49.322;7.218;2023-05-25T10:31:02;99349.66;;;28.19;34.34
18275;BME280;19470;49.322;7.218;2023-05-25T10:33:30;99350.75;;;27.57;36.43
18275;BME280;19470;49.322;7.218;2023-05-25T10:35:57;99353.81;;;27.10;35.57
18275;BME280;19470;49.322;7.218;2023-05-25T10:38:25;99347.53;;;28.65;33.58
18275;BME280;19470;49.322;7.218;2023-05-25T10:40:54;99350.56;;;27.98;34.40
18275;BME280;19470;49.322;7.218;2023-05-25T10:43:21;99341.13;;;27.59;34.40
18275;BME280;19470;49.322;7.218;2023-05-25T10:45:48;99345.31;;;29.11;33.46
18275;BME280;19470;49.322;7.218;2023-05-25T10:48:15;99338.66;;;30.19;32.40
18275;BME280;19470;49.322;7.218;2023-05-25T10:50:48;99332.03;;;28.81;33.48
18275;BME280;19470;49.322;7.218;2023-05-25T10:53:15;99342.03;;;30.86;31.16
18275;BME280;19470;49.322;7.218;2023-05-25T10:55:43;99341.00;;;30.36;30.74
18275;BME280;19470;49.322;7.218;2023-05-25T10:58:16;99339.28;;;29.33;32.90
18275;BME280;19470;49.322;7.218;2023-05-25T11:00:56;99344.66;;;28.09;32.73
18275;BME280;19470;49.322;7.218;2023-05-25T11:03:47;99336.03;;;30.07;32.75
18275;BME280;19470;49.322;7.218;2023-05-25T11:06:14;99334.97;;;30.66;31.78
18275;BME280;19470;49.322;7.218;2023-05-25T11:08:48;99336.47;;;28.21;32.82
18275;BME280;19470;49.322;7.218;2023-05-25T11:14:21;99327.22;;;30.68;29.58
18275;BME280;19470;49.322;7.218;2023-05-25T11:17:03;99336.78;;;30.97;32.25
18275;BME280;19470;49.322;7.218;2023-05-25T11:19:38;99327.34;;;31.60;29.88
18275;BME280;19470;49.322;7.218;2023-05-25T11:22:21;99326.78;;;31.73;29.99
18275;BME280;19470;49.322;7.218;2023-05-25T11:24:56;99326.97;;;31.38;29.87
18275;BME280;19470;49.322;7.218;2023-05-25T11:27:23;99328.78;;;31.08;30.91
18275;BME280;19470;49.322;7.218;2023-05-25T11:29:52;99330.69;;;29.78;30.60
18275;BME280;19470;49.322;7.218;2023-05-25T11:32:20;99328.38;;;29.49;31.29
18275;BME280;19470;49.322;7.218;2023-05-25T11:34:47;99328.84;;;30.34;30.13
18275;BME280;19470;49.322;7.218;2023-05-25T11:37:15;99320.66;;;28.79;31.37
18275;BME280;19470;49.322;7.218;2023-05-25T11:39:45;99315.53;;;29.81;30.41
18275;BME280;19470;49.322;7.218;2023-05-25T11:42:13;99314.91;;;29.24;30.01
18275;BME280;19470;49.322;7.218;2023-05-25T11:44:40;99318.34;;;30.36;30.49
18275;BME280;19470;49.322;7.218;2023-05-25T11:47:10;99317.91;;;29.98;29.37
18275;BME280;19470;49.322;7.218;2023-05-25T11:49:38;99320.69;;;30.92;29.51
18275;BME280;19470;49.322;7.218;2023-05-25T11:52:08;99308.88;;;30.68;28.86
18275;BME280;19470;49.322;7.218;2023-05-25T11:54:35;99308.63;;;28.52;31.92
18275;BME280;19470;49.322;7.218;2023-05-25T11:57:13;99319.03;;;30.87;28.43
18275;BME280;19470;49.322;7.218;2023-05-25T11:59:40;99317.88;;;29.03;31.79
18275;BME280;19470;49.322;7.218;2023-05-25T12:02:13;99306.28;;;30.75;29.82
18275;BME280;19470;49.322;7.218;2023-05-25T12:04:40;99312.81;;;30.51;28.69
18275;BME280;19470;49.322;7.218;2023-05-25T12:07:07;99307.75;;;30.15;28.90
18275;BME280;19470;49.322;7.218;2023-05-25T12:09:34;99321.69;;;29.78;28.37
18275;BME280;19470;49.322;7.218;2023-05-25T12:12:03;99316.84;;;30.77;28.62
18275;BME280;19470;49.322;7.218;2023-05-25T12:14:29;99305.13;;;28.51;30.36
18275;BME280;19470;49.322;7.218;2023-05-25T12:16:57;99312.31;;;29.60;33.12
18275;BME280;19470;49.322;7.218;2023-05-25T12:19:25;99306.19;;;29.35;30.41
18275;BME280;19470;49.322;7.218;2023-05-25T12:21:52;99303.88;;;28.49;31.93
18275;BME280;19470;49.322;7.218;2023-05-25T12:24:20;99300.59;;;30.45;27.53
18275;BME280;19470;49.322;7.218;2023-05-25T12:26:47;99294.16;;;28.92;29.33
18275;BME280;19470;49.322;7.218;2023-05-25T12:29:14;99293.66;;;28.74;30.14
18275;BME280;19470;49.322;7.218;2023-05-25T12:31:40;99302.09;;;29.57;29.60
18275;BME280;19470;49.322;7.218;2023-05-25T12:34:09;99287.97;;;29.86;27.75
18275;BME280;19470;49.322;7.218;2023-05-25T12:36:43;99299.50;;;30.50;29.68
18275;BME280;19470;49.322;7.218;2023-05-25T12:39:12;99290.34;;;29.72;30.92
18275;BME280;19470;49.322;7.218;2023-05-25T12:41:47;99295.47;;;29.42;31.14
18275;BME280;19470;49.322;7.218;2023-05-25T12:44:19;99298.56;;;28.40;31.32
18275;BME280;19470;49.322;7.218;2023-05-25T12:50:12;99301.56;;;27.98;32.16
18275;BME280;19470;49.322;7.218;2023-05-25T12:52:41;99305.72;;;27.35;33.16
18275;BME280;19470;49.322;7.218;2023-05-25T12:55:18;99306.28;;;26.95;33.56
18275;BME280;19470;49.322;7.218;2023-05-25T12:57:44;99299.69;;;26.63;36.09
18275;BME280;19470;49.322;7.218;2023-05-25T13:00:17;99296.03;;;27.13;35.37
18275;BME280;19470;49.322;7.218;2023-05-25T13:02:44;99294.47;;;27.12;34.92
18275;BME280;19470;49.322;7.218;2023-05-25T13:05:19;99294.59;;;26.40;36.87
18275;BME280;19470;49.322;7.218;2023-05-25T13:07:47;99292.47;;;27.00;37.70
18275;BME280;19470;49.322;7.218;2023-05-25T13:10:14;99301.31;;;27.42;36.88
18275;BME280;19470;49.322;7.218;2023-05-25T13:12:41;99315.78;;;26.26;37.29
18275;BME280;19470;49.322;7.218;2023-05-25T13:15:09;99306.63;;;26.93;37.25
18275;BME280;19470;49.322;7.218;2023-05-25T13:17:35;99304.34;;;26.95;37.78
18275;BME280;19470;49.322;7.218;2023-05-25T13:20:02;99286.91;;;28.03;36.93
18275;BME280;19470;49.322;7.218;2023-05-25T13:22:31;99299.50;;;27.71;37.32
18275;BME280;19470;49.322;7.218;2023-05-25T13:24:59;99283.03;;;27.18;36.64
18275;BME280;19470;49.322;7.218;2023-05-25T13:27:26;99292.03;;;27.43;36.94
18275;BME280;19470;49.322;7.218;2023-05-25T13:29:52;99293.25;;;27.70;36.35